logo
Search for airport 
image banner adimage banner adimage banner ad
image banner ad

YDPO - Devonport

Located in Devonport, Australia

ICAO - YDPO, IATA - DPO

Data provided by Airmate  

General information

Coordinates: S41°10'11" E146°25'49"
Elevation is 33 feet MSL.
 
View others Airports in Tasmania

Operational data

Special qualification required
Current time UTC:
Current local time:
Weather at : YMLT - Launceston ( 78 km )
METAR: YMLT 282000Z AUTO 35009KT 9999 // NCD 10/10 Q1022 RF00.0/000.2
TAF: TAF YMLT 281716Z 2818/2918 34011KT 9999 FEW008 FM290100 34012KT 9999 FEW015 TEMPO 2818/2900 9999 BKN008 PROB30 2818/2823 2000 BR BKN001
View NOTAMs / SUP AIP / TFR affecting this airport [VIEW]
Communications frequencies: [VIEW]

Runways:

RWY identifierQFULength (ft)Width (ft)SurfaceLDA (ft)
0676°6030148ASP
24256°6030148ASP
14156°288798GRS
32336°288798GRS

Airport contact information

Address: Devonport Australia

Other aviation service providers

Aviation club (not for profit)

Devon Port Aero Club

Devon Port Aero Club
president@devonportaeroclub.com.au+61408188683
+61408188683

Satellite view of YDPO